sensor_id;sensor_type;location;lat;lon;timestamp;pressure;altitude;pressure_sealevel;temperature;humidity
30021;BME280;16861;52.294;7.760;2023-03-01T00:01:11;101289.03;;;4.07;50.93
30021;BME280;16861;52.294;7.760;2023-03-01T00:03:39;101292.50;;;4.08;51.49
30021;BME280;16861;52.294;7.760;2023-03-01T00:06:06;101290.78;;;4.07;51.38
30021;BME280;16861;52.294;7.760;2023-03-01T00:08:33;101286.41;;;4.07;51.44
30021;BME280;16861;52.294;7.760;2023-03-01T00:11:17;101287.31;;;4.03;50.97
30021;BME280;16861;52.294;7.760;2023-03-01T00:13:46;101289.91;;;4.04;51.46
30021;BME280;16861;52.294;7.760;2023-03-01T00:16:16;101296.88;;;4.01;51.13
30021;BME280;16861;52.294;7.760;2023-03-01T00:18:43;101293.41;;;4.00;51.42
30021;BME280;16861;52.294;7.760;2023-03-01T00:21:10;101292.56;;;4.00;51.49
30021;BME280;16861;52.294;7.760;2023-03-01T00:23:38;101286.47;;;3.98;51.32
30021;BME280;16861;52.294;7.760;2023-03-01T00:26:10;101296.88;;;3.95;51.24
30021;BME280;16861;52.294;7.760;2023-03-01T00:28:37;101296.03;;;3.97;51.52
30021;BME280;16861;52.294;7.760;2023-03-01T00:31:15;101289.09;;;3.93;50.83
30021;BME280;16861;52.294;7.760;2023-03-01T00:33:42;101297.78;;;3.94;51.35
30021;BME280;16861;52.294;7.760;2023-03-01T00:36:11;101290.84;;;3.89;51.22
30021;BME280;16861;52.294;7.760;2023-03-01T00:38:39;101288.28;;;3.86;51.31
30021;BME280;16861;52.294;7.760;2023-03-01T00:41:08;101288.28;;;3.83;51.66
30021;BME280;16861;52.294;7.760;2023-03-01T00:43:35;101292.59;;;3.81;51.25
30021;BME280;16861;52.294;7.760;2023-03-01T00:46:07;101296.97;;;3.77;51.45
30021;BME280;16861;52.294;7.760;2023-03-01T00:48:35;101300.47;;;3.76;51.97
30021;BME280;16861;52.294;7.760;2023-03-01T00:51:22;101300.47;;;3.72;50.92
30021;BME280;16861;52.294;7.760;2023-03-01T00:53:51;101296.13;;;3.72;51.61
30021;BME280;16861;52.294;7.760;2023-03-01T00:56:18;101300.47;;;3.70;51.54
30021;BME280;16861;52.294;7.760;2023-03-01T00:58:46;101299.63;;;3.68;51.88
30021;BME280;16861;52.294;7.760;2023-03-01T01:01:18;101294.41;;;3.65;51.54
30021;BME280;16861;52.294;7.760;2023-03-01T01:03:48;101288.34;;;3.63;51.97
30021;BME280;16861;52.294;7.760;2023-03-01T01:06:26;101294.41;;;3.62;51.82
30021;BME280;16861;52.294;7.760;2023-03-01T01:08:54;101287.47;;;3.61;52.20
30021;BME280;16861;52.294;7.760;2023-03-01T01:11:22;101292.69;;;3.59;51.94
30021;BME280;16861;52.294;7.760;2023-03-01T01:13:50;101286.63;;;3.59;52.09
30021;BME280;16861;52.294;7.760;2023-03-01T01:16:18;101285.75;;;3.57;52.14
30021;BME280;16861;52.294;7.760;2023-03-01T01:18:45;101282.31;;;3.56;51.84
30021;BME280;16861;52.294;7.760;2023-03-01T01:21:15;101280.56;;;3.54;52.13
30021;BME280;16861;52.294;7.760;2023-03-01T01:23:43;101279.69;;;3.51;51.83
30021;BME280;16861;52.294;7.760;2023-03-01T01:26:12;101273.66;;;3.49;52.22
30021;BME280;16861;52.294;7.760;2023-03-01T01:28:39;101271.03;;;3.49;52.26
30021;BME280;16861;52.294;7.760;2023-03-01T01:31:06;101272.75;;;3.47;52.15
30021;BME280;16861;52.294;7.760;2023-03-01T01:33:33;101266.72;;;3.45;52.30
30021;BME280;16861;52.294;7.760;2023-03-01T01:36:00;101268.44;;;3.45;52.49
30021;BME280;16861;52.294;7.760;2023-03-01T01:38:27;101274.53;;;3.42;52.22
30021;BME280;16861;52.294;7.760;2023-03-01T01:40:53;101257.19;;;3.39;52.12
30021;BME280;16861;52.294;7.760;2023-03-01T01:43:23;101257.19;;;3.38;52.15
30021;BME280;16861;52.294;7.760;2023-03-01T01:45:51;101253.69;;;3.37;52.48
30021;BME280;16861;52.294;7.760;2023-03-01T01:48:23;101253.69;;;3.36;52.33
30021;BME280;16861;52.294;7.760;2023-03-01T01:50:59;101250.25;;;3.34;52.05
30021;BME280;16861;52.294;7.760;2023-03-01T01:53:26;101249.38;;;3.35;52.54
30021;BME280;16861;52.294;7.760;2023-03-01T01:55:57;101247.63;;;3.32;52.11
30021;BME280;16861;52.294;7.760;2023-03-01T01:58:26;101249.41;;;3.30;52.41
30021;BME280;16861;52.294;7.760;2023-03-01T02:00:54;101252.00;;;3.29;52.18
30021;BME280;16861;52.294;7.760;2023-03-01T02:03:26;101246.78;;;3.25;52.42
30021;BME280;16861;52.294;7.760;2023-03-01T02:06:18;101252.00;;;3.22;52.06
30021;BME280;16861;52.294;7.760;2023-03-01T02:08:47;101243.34;;;3.23;52.62
30021;BME280;16861;52.294;7.760;2023-03-01T02:11:15;101242.47;;;3.21;52.45
30021;BME280;16861;52.294;7.760;2023-03-01T02:13:42;101239.84;;;3.20;52.60
30021;BME280;16861;52.294;7.760;2023-03-01T02:16:11;101245.09;;;3.17;52.92
30021;BME280;16861;52.294;7.760;2023-03-01T02:18:41;101236.41;;;3.15;52.89
30021;BME280;16861;52.294;7.760;2023-03-01T02:23:47;101226.00;;;3.11;53.03
30021;BME280;16861;52.294;7.760;2023-03-01T02:29:03;101228.63;;;3.08;53.21
30021;BME280;16861;52.294;7.760;2023-03-01T02:31:32;101224.31;;;3.06;53.23
30021;BME280;16861;52.294;7.760;2023-03-01T02:34:10;101220.81;;;3.04;52.78
30021;BME280;16861;52.294;7.760;2023-03-01T02:36:46;101222.56;;;3.02;52.62
30021;BME280;16861;52.294;7.760;2023-03-01T02:39:21;101217.38;;;2.98;52.89
30021;BME280;16861;52.294;7.760;2023-03-01T02:41:53;101219.97;;;2.97;53.12
30021;BME280;16861;52.294;7.760;2023-03-01T02:44:21;101220.84;;;2.97;52.92
30021;BME280;16861;52.294;7.760;2023-03-01T02:46:50;101226.94;;;2.95;53.30
30021;BME280;16861;52.294;7.760;2023-03-01T02:49:29;101226.03;;;2.91;53.36
30021;BME280;16861;52.294;7.760;2023-03-01T02:54:48;101220.88;;;2.88;53.05
30021;BME280;16861;52.294;7.760;2023-03-01T02:57:18;101221.72;;;2.87;53.46
30021;BME280;16861;52.294;7.760;2023-03-01T02:59:45;101216.53;;;2.84;53.15
30021;BME280;16861;52.294;7.760;2023-03-01T03:02:30;101211.31;;;2.76;53.28
30021;BME280;16861;52.294;7.760;2023-03-01T03:05:11;101216.53;;;2.76;53.47
30021;BME280;16861;52.294;7.760;2023-03-01T03:07:41;101205.25;;;2.74;53.41
30021;BME280;16861;52.294;7.760;2023-03-01T03:10:11;101209.59;;;2.70;53.24
30021;BME280;16861;52.294;7.760;2023-03-01T03:12:38;101213.94;;;2.68;53.58
30021;BME280;16861;52.294;7.760;2023-03-01T03:15:06;101215.69;;;2.63;53.87
30021;BME280;16861;52.294;7.760;2023-03-01T03:17:39;101220.00;;;2.59;53.74
30021;BME280;16861;52.294;7.760;2023-03-01T03:20:07;101212.22;;;2.58;53.29
30021;BME280;16861;52.294;7.760;2023-03-01T03:22:39;101213.09;;;2.54;53.40
30021;BME280;16861;52.294;7.760;2023-03-01T03:25:07;101210.47;;;2.51;52.95
30021;BME280;16861;52.294;7.760;2023-03-01T03:27:41;101212.19;;;2.42;53.12
30021;BME280;16861;52.294;7.760;2023-03-01T03:30:10;101217.38;;;2.39;53.15
30021;BME280;16861;52.294;7.760;2023-03-01T03:32:40;101215.66;;;2.33;53.96
30021;BME280;16861;52.294;7.760;2023-03-01T03:35:08;101209.59;;;2.30;53.75
30021;BME280;16861;52.294;7.760;2023-03-01T03:37:39;101213.03;;;2.26;54.25
30021;BME280;16861;52.294;7.760;2023-03-01T03:40:26;101213.91;;;2.25;53.66
30021;BME280;16861;52.294;7.760;2023-03-01T03:42:54;101207.00;;;2.22;53.86
30021;BME280;16861;52.294;7.760;2023-03-01T03:45:21;101213.91;;;2.21;53.97
30021;BME280;16861;52.294;7.760;2023-03-01T03:47:48;101207.84;;;2.22;54.42
30021;BME280;16861;52.294;7.760;2023-03-01T03:50:17;101207.84;;;2.22;54.16
30021;BME280;16861;52.294;7.760;2023-03-01T03:52:44;101202.66;;;2.24;54.19
30021;BME280;16861;52.294;7.760;2023-03-01T03:55:11;101203.53;;;2.25;54.17
30021;BME280;16861;52.294;7.760;2023-03-01T03:57:40;101195.75;;;2.26;54.17
30021;BME280;16861;52.294;7.760;2023-03-01T04:00:10;101189.66;;;2.26;54.65
30021;BME280;16861;52.294;7.760;2023-03-01T04:02:42;101183.59;;;2.27;53.99
30021;BME280;16861;52.294;7.760;2023-03-01T04:05:11;101177.56;;;2.28;54.55
30021;BME280;16861;52.294;7.760;2023-03-01T04:07:38;101172.38;;;2.28;53.96
30021;BME280;16861;52.294;7.760;2023-03-01T04:10:07;101165.41;;;2.27;53.93
30021;BME280;16861;52.294;7.760;2023-03-01T04:12:34;101164.56;;;2.28;54.17
30021;BME280;16861;52.294;7.760;2023-03-01T04:15:02;101162.81;;;2.28;54.38
30021;BME280;16861;52.294;7.760;2023-03-01T04:17:40;101161.09;;;2.27;54.54
30021;BME280;16861;52.294;7.760;2023-03-01T04:20:15;101163.69;;;2.27;53.90
30021;BME280;16861;52.294;7.760;2023-03-01T04:22:57;101161.09;;;2.29;53.13
30021;BME280;16861;52.294;7.760;2023-03-01T04:25:25;101164.56;;;2.28;53.83
30021;BME280;16861;52.294;7.760;2023-03-01T04:27:51;101164.53;;;2.23;54.25
30021;BME280;16861;52.294;7.760;2023-03-01T04:30:18;101168.00;;;2.19;54.03
30021;BME280;16861;52.294;7.760;2023-03-01T04:32:45;101155.00;;;2.16;54.07
30021;BME280;16861;52.294;7.760;2023-03-01T04:35:11;101156.75;;;2.14;54.89
30021;BME280;16861;52.294;7.760;2023-03-01T04:37:38;101164.53;;;2.14;54.55
30021;BME280;16861;52.294;7.760;2023-03-01T04:40:05;101159.34;;;2.14;54.67
30021;BME280;16861;52.294;7.760;2023-03-01T04:42:39;101164.53;;;2.12;54.67
30021;BME280;16861;52.294;7.760;2023-03-01T04:45:06;101165.41;;;2.13;54.23
30021;BME280;16861;52.294;7.760;2023-03-01T04:47:40;101155.03;;;2.13;54.77
30021;BME280;16861;52.294;7.760;2023-03-01T04:50:08;101153.28;;;2.13;54.54
30021;BME280;16861;52.294;7.760;2023-03-01T04:52:35;101153.28;;;2.13;54.62
30021;BME280;16861;52.294;7.760;2023-03-01T04:55:02;101144.63;;;2.13;54.18
30021;BME280;16861;52.294;7.760;2023-03-01T04:57:30;101145.50;;;2.13;54.59
30021;BME280;16861;52.294;7.760;2023-03-01T04:59:57;101142.03;;;2.13;54.38
30021;BME280;16861;52.294;7.760;2023-03-01T05:02:23;101138.56;;;2.14;54.56
30021;BME280;16861;52.294;7.760;2023-03-01T05:04:50;101146.34;;;2.12;54.42
30021;BME280;16861;52.294;7.760;2023-03-01T05:07:17;101136.84;;;2.11;54.99
30021;BME280;16861;52.294;7.760;2023-03-01T05:09:46;101140.31;;;2.10;54.63
30021;BME280;16861;52.294;7.760;2023-03-01T05:12:14;101139.44;;;2.08;54.78
30021;BME280;16861;52.294;7.760;2023-03-01T05:14:41;101141.19;;;2.07;54.75
30021;BME280;16861;52.294;7.760;2023-03-01T05:17:07;101144.63;;;2.08;55.11
30021;BME280;16861;52.294;7.760;2023-03-01T05:19:34;101142.91;;;2.07;54.96
30021;BME280;16861;52.294;7.760;2023-03-01T05:22:01;101143.78;;;2.07;54.80
30021;BME280;16861;52.294;7.760;2023-03-01T05:24:32;101142.91;;;2.07;54.79
30021;BME280;16861;52.294;7.760;2023-03-01T05:27:01;101141.16;;;2.06;54.84
30021;BME280;16861;52.294;7.760;2023-03-01T05:29:29;101140.28;;;2.05;54.58
30021;BME280;16861;52.294;7.760;2023-03-01T05:31:58;101140.28;;;2.04;54.87
30021;BME280;16861;52.294;7.760;2023-03-01T08:31:29;101129.84;;;2.88;57.38
30021;BME280;16861;52.294;7.760;2023-03-01T08:33:59;101129.81;;;2.96;56.95
30021;BME280;16861;52.294;7.760;2023-03-01T08:36:28;101128.03;;;3.03;57.22
30021;BME280;16861;52.294;7.760;2023-03-01T08:38:56;101119.34;;;3.08;57.10
30021;BME280;16861;52.294;7.760;2023-03-01T08:41:22;101126.25;;;3.14;57.18
30021;BME280;16861;52.294;7.760;2023-03-01T08:43:49;101122.75;;;3.21;57.39
30021;BME280;16861;52.294;7.760;2023-03-01T08:46:16;101121.88;;;3.29;57.10
30021;BME280;16861;52.294;7.760;2023-03-01T08:48:42;101115.75;;;3.36;57.08
30021;BME280;16861;52.294;7.760;2023-03-01T08:51:15;101111.41;;;3.41;56.34
30021;BME280;16861;52.294;7.760;2023-03-01T08:53:42;101119.16;;;3.49;55.70
30021;BME280;16861;52.294;7.760;2023-03-01T08:56:09;101120.00;;;3.59;57.08
30021;BME280;16861;52.294;7.760;2023-03-01T08:58:37;101115.63;;;3.62;56.88
30021;BME280;16861;52.294;7.760;2023-03-01T09:01:08;101115.59;;;3.64;56.27
30021;BME280;16861;52.294;7.760;2023-03-01T09:03:36;101119.03;;;3.71;56.73
30021;BME280;16861;52.294;7.760;2023-03-01T09:06:04;101110.34;;;3.73;56.83
30021;BME280;16861;52.294;7.760;2023-03-01T09:08:34;101112.94;;;3.76;56.28
30021;BME280;16861;52.294;7.760;2023-03-01T09:11:02;101113.75;;;3.82;56.61
30021;BME280;16861;52.294;7.760;2023-03-01T09:13:29;101112.88;;;3.86;56.73
30021;BME280;16861;52.294;7.760;2023-03-01T09:16:02;101105.00;;;3.90;56.32
30021;BME280;16861;52.294;7.760;2023-03-01T09:18:29;101118.00;;;3.98;56.63
30021;BME280;16861;52.294;7.760;2023-03-01T09:21:12;101109.28;;;4.01;56.24
30021;BME280;16861;52.294;7.760;2023-03-01T09:23:41;101110.09;;;4.09;56.73
30021;BME280;16861;52.294;7.760;2023-03-01T09:26:10;101100.47;;;4.14;56.38
30021;BME280;16861;52.294;7.760;2023-03-01T09:28:40;101106.50;;;4.23;56.66
30021;BME280;16861;52.294;7.760;2023-03-01T09:31:11;101106.44;;;4.29;56.81
30021;BME280;16861;52.294;7.760;2023-03-01T09:33:41;101095.06;;;4.36;56.73
30021;BME280;16861;52.294;7.760;2023-03-01T09:36:12;101090.66;;;4.43;56.32
30021;BME280;16861;52.294;7.760;2023-03-01T09:38:39;101092.34;;;4.52;56.83
30021;BME280;16861;52.294;7.760;2023-03-01T09:41:30;101093.97;;;4.59;55.40
30021;BME280;16861;52.294;7.760;2023-03-01T09:44:11;101086.03;;;4.70;55.83
30021;BME280;16861;52.294;7.760;2023-03-01T09:46:44;101080.72;;;4.78;56.03
30021;BME280;16861;52.294;7.760;2023-03-01T09:49:15;101086.72;;;4.88;55.95
30021;BME280;16861;52.294;7.760;2023-03-01T09:52:01;101089.25;;;4.94;55.00
30021;BME280;16861;52.294;7.760;2023-03-01T09:54:31;101089.97;;;5.05;56.29
30021;BME280;16861;52.294;7.760;2023-03-01T09:57:20;101080.34;;;5.11;54.75
30021;BME280;16861;52.294;7.760;2023-03-01T10:03:06;101077.50;;;5.29;54.46
30021;BME280;16861;52.294;7.760;2023-03-01T10:05:49;101089.53;;;5.40;54.61
30021;BME280;16861;52.294;7.760;2023-03-01T10:08:41;101090.28;;;5.48;54.59
30021;BME280;16861;52.294;7.760;2023-03-01T10:11:41;101087.53;;;5.57;54.45
30021;BME280;16861;52.294;7.760;2023-03-01T10:16:48;101084.59;;;5.79;55.31
30021;BME280;16861;52.294;7.760;2023-03-01T10:19:27;101082.75;;;5.87;54.58
30021;BME280;16861;52.294;7.760;2023-03-01T10:21:57;101080.75;;;6.02;55.70
30021;BME280;16861;52.294;7.760;2023-03-01T10:24:29;101072.75;;;6.13;55.13
30021;BME280;16861;52.294;7.760;2023-03-01T10:27:03;101061.28;;;6.22;54.42
30021;BME280;16861;52.294;7.760;2023-03-01T10:29:37;101054.97;;;6.34;53.98
30021;BME280;16861;52.294;7.760;2023-03-01T10:32:05;101060.84;;;6.47;55.26
30021;BME280;16861;52.294;7.760;2023-03-01T10:34:34;101064.97;;;6.59;54.79
30021;BME280;16861;52.294;7.760;2023-03-01T10:39:36;101054.03;;;6.84;54.84
30021;BME280;16861;52.294;7.760;2023-03-01T10:42:05;101052.00;;;6.97;54.43
30021;BME280;16861;52.294;7.760;2023-03-01T10:44:47;101061.38;;;7.09;52.38
30021;BME280;16861;52.294;7.760;2023-03-01T10:47:20;101055.84;;;7.23;52.93
30021;BME280;16861;52.294;7.760;2023-03-01T10:52:28;101050.09;;;7.46;52.44
30021;BME280;16861;52.294;7.760;2023-03-01T10:54:59;101056.78;;;7.58;52.41
30021;BME280;16861;52.294;7.760;2023-03-01T10:57:37;101049.59;;;7.66;51.29
30021;BME280;16861;52.294;7.760;2023-03-01T11:00:21;101054.66;;;7.74;50.73
30021;BME280;16861;52.294;7.760;2023-03-01T11:03:03;101060.56;;;7.82;50.56
30021;BME280;16861;52.294;7.760;2023-03-01T11:05:30;101060.28;;;7.95;52.46
30021;BME280;16861;52.294;7.760;2023-03-01T11:08:01;101060.06;;;8.03;51.69
30021;BME280;16861;52.294;7.760;2023-03-01T11:10:32;101062.56;;;8.09;51.56
30021;BME280;16861;52.294;7.760;2023-03-01T11:13:08;101065.00;;;8.15;49.32
30021;BME280;16861;52.294;7.760;2023-03-01T11:15:39;101064.72;;;8.26;51.55
30021;BME280;16861;52.294;7.760;2023-03-01T11:18:21;101060.28;;;8.30;48.68
30021;BME280;16861;52.294;7.760;2023-03-01T11:21:03;101054.75;;;8.41;50.64
30021;BME280;16861;52.294;7.760;2023-03-01T11:23:32;101055.34;;;8.51;50.64
30021;BME280;16861;52.294;7.760;2023-03-01T11:26:02;101054.31;;;8.58;50.06
30021;BME280;16861;52.294;7.760;2023-03-01T11:28:32;101059.28;;;8.67;50.88
30021;BME280;16861;52.294;7.760;2023-03-01T11:31:07;101062.50;;;8.79;49.88
30021;BME280;16861;52.294;7.760;2023-03-01T11:36:41;101047.66;;;9.08;49.24
30021;BME280;16861;52.294;7.760;2023-03-01T11:39:36;101040.88;;;9.29;49.47
30021;BME280;16861;52.294;7.760;2023-03-01T11:45:10;101032.72;;;9.93;51.48
30021;BME280;16861;52.294;7.760;2023-03-01T11:47:51;101025.31;;;10.29;50.23
30021;BME280;16861;52.294;7.760;2023-03-01T11:50:47;101022.66;;;10.80;50.33
30021;BME280;16861;52.294;7.760;2023-03-01T11:53:28;101019.09;;;11.50;50.84
30021;BME280;16861;52.294;7.760;2023-03-01T11:56:05;100999.53;;;12.20;52.98
30021;BME280;16861;52.294;7.760;2023-03-01T11:59:06;101000.44;;;13.16;52.79
30021;BME280;16861;52.294;7.760;2023-03-01T12:07:00;100998.75;;;15.07;48.48
30021;BME280;16861;52.294;7.760;2023-03-01T12:09:43;100984.34;;;15.58;46.00
30021;BME280;16861;52.294;7.760;2023-03-01T12:12:42;100983.75;;;16.14;45.48
30021;BME280;16861;52.294;7.760;2023-03-01T12:21:14;100973.22;;;17.40;43.25
30021;BME280;16861;52.294;7.760;2023-03-01T12:24:20;100968.81;;;17.80;43.10
30021;BME280;16861;52.294;7.760;2023-03-01T12:29:31;100965.53;;;18.41;40.18
30021;BME280;16861;52.294;7.760;2023-03-01T12:37:27;100950.63;;;19.00;39.58
30021;BME280;16861;52.294;7.760;2023-03-01T12:48:17;100949.88;;;19.36;40.80
30021;BME280;16861;52.294;7.760;2023-03-01T12:50:40;100946.13;;;19.50;40.61
30021;BME280;16861;52.294;7.760;2023-03-01T12:53:30;100946.28;;;19.60;37.93
30021;BME280;16861;52.294;7.760;2023-03-01T12:56:01;100936.97;;;19.77;38.31
30021;BME280;16861;52.294;7.760;2023-03-01T13:01:46;100930.22;;;19.96;36.79
30021;BME280;16861;52.294;7.760;2023-03-01T13:04:35;100915.66;;;20.11;39.34
30021;BME280;16861;52.294;7.760;2023-03-01T13:10:11;100907.31;;;20.27;36.63
30021;BME280;16861;52.294;7.760;2023-03-01T13:15:26;100904.81;;;20.47;36.32
30021;BME280;16861;52.294;7.760;2023-03-01T13:33:58;100890.59;;;20.58;34.96
30021;BME280;16861;52.294;7.760;2023-03-01T13:39:31;100882.84;;;19.98;34.00
30021;BME280;16861;52.294;7.760;2023-03-01T13:42:32;100879.41;;;19.61;32.72
30021;BME280;16861;52.294;7.760;2023-03-01T13:44:59;100880.47;;;19.36;34.63
30021;BME280;16861;52.294;7.760;2023-03-01T13:47:27;100877.22;;;19.08;34.89
30021;BME280;16861;52.294;7.760;2023-03-01T13:49:59;100871.47;;;18.77;33.70
30021;BME280;16861;52.294;7.760;2023-03-01T13:52:43;100874.44;;;18.47;33.40
30021;BME280;16861;52.294;7.760;2023-03-01T13:57:48;100858.00;;;18.16;35.76
30021;BME280;16861;52.294;7.760;2023-03-01T14:00:37;100867.50;;;17.94;35.33
30021;BME280;16861;52.294;7.760;2023-03-01T14:03:17;100867.69;;;17.91;36.90
30021;BME280;16861;52.294;7.760;2023-03-01T14:08:40;100865.69;;;17.95;37.09
30021;BME280;16861;52.294;7.760;2023-03-01T14:16:48;100847.84;;;18.34;35.71
30021;BME280;16861;52.294;7.760;2023-03-01T14:19:24;100845.09;;;18.60;36.04
30021;BME280;16861;52.294;7.760;2023-03-01T14:22:02;100846.31;;;18.92;38.30
30021;BME280;16861;52.294;7.760;2023-03-01T14:24:31;100840.03;;;19.29;37.76
30021;BME280;16861;52.294;7.760;2023-03-01T14:27:01;100834.25;;;19.70;37.66
30021;BME280;16861;52.294;7.760;2023-03-01T14:29:36;100832.34;;;20.06;34.45
30021;BME280;16861;52.294;7.760;2023-03-01T14:32:20;100838.22;;;20.44;34.94
30021;BME280;16861;52.294;7.760;2023-03-01T14:34:50;100824.22;;;20.85;36.80
30021;BME280;16861;52.294;7.760;2023-03-01T14:37:29;100829.28;;;21.20;34.47
30021;BME280;16861;52.294;7.760;2023-03-01T14:39:57;100824.03;;;21.61;36.20
30021;BME280;16861;52.294;7.760;2023-03-01T14:42:27;100819.41;;;21.95;34.08
30021;BME280;16861;52.294;7.760;2023-03-01T14:44:56;100817.22;;;22.20;34.18
30021;BME280;16861;52.294;7.760;2023-03-01T14:50:14;100802.84;;;22.50;33.42
30021;BME280;16861;52.294;7.760;2023-03-01T14:52:45;100796.25;;;22.64;32.48
30021;BME280;16861;52.294;7.760;2023-03-01T14:55:36;100794.53;;;22.73;31.18
30021;BME280;16861;52.294;7.760;2023-03-01T14:58:05;100786.22;;;22.86;32.58
30021;BME280;16861;52.294;7.760;2023-03-01T15:00:35;100785.63;;;22.93;32.94
30021;BME280;16861;52.294;7.760;2023-03-01T15:03:14;100774.19;;;22.90;31.73
30021;BME280;16861;52.294;7.760;2023-03-01T15:05:44;100780.13;;;22.94;32.11
30021;BME280;16861;52.294;7.760;2023-03-01T15:08:22;100785.94;;;22.80;30.45
30021;BME280;16861;52.294;7.760;2023-03-01T15:11:02;100779.44;;;22.72;30.33
30021;BME280;16861;52.294;7.760;2023-03-01T15:13:33;100776.47;;;22.65;30.10
30021;BME280;16861;52.294;7.760;2023-03-01T15:16:11;100771.09;;;22.56;31.10
30021;BME280;16861;52.294;7.760;2023-03-01T15:18:48;100780.09;;;22.45;29.63
30021;BME280;16861;52.294;7.760;2023-03-01T15:21:21;100777.44;;;22.35;30.79
30021;BME280;16861;52.294;7.760;2023-03-01T15:24:02;100777.81;;;22.20;30.80
30021;BME280;16861;52.294;7.760;2023-03-01T15:26:41;100780.34;;;22.02;29.98
30021;BME280;16861;52.294;7.760;2023-03-01T15:29:20;100782.56;;;21.87;30.62
30021;BME280;16861;52.294;7.760;2023-03-01T15:31:57;100774.97;;;21.71;30.03
30021;BME280;16861;52.294;7.760;2023-03-01T15:36:53;100783.72;;;21.11;30.18
30021;BME280;16861;52.294;7.760;2023-03-01T15:39:40;100784.84;;;20.42;29.60
30021;BME280;16861;52.294;7.760;2023-03-01T15:42:11;100767.72;;;19.78;29.84
30021;BME280;16861;52.294;7.760;2023-03-01T15:44:40;100773.09;;;18.96;29.77
30021;BME280;16861;52.294;7.760;2023-03-01T15:47:25;100773.03;;;18.25;31.46
30021;BME280;16861;52.294;7.760;2023-03-01T15:49:53;100773.81;;;17.50;31.42
30021;BME280;16861;52.294;7.760;2023-03-01T15:55:00;100767.50;;;16.04;31.55
30021;BME280;16861;52.294;7.760;2023-03-01T15:57:28;100770.06;;;15.47;32.96
30021;BME280;16861;52.294;7.760;2023-03-01T15:59:54;100761.94;;;14.90;33.31
30021;BME280;16861;52.294;7.760;2023-03-01T16:02:23;100760.38;;;14.39;33.57
30021;BME280;16861;52.294;7.760;2023-03-01T16:04:50;100766.31;;;13.96;34.15
30021;BME280;16861;52.294;7.760;2023-03-01T16:07:17;100763.00;;;13.59;34.62
30021;BME280;16861;52.294;7.760;2023-03-01T16:09:43;100764.75;;;13.24;34.89
30021;BME280;16861;52.294;7.760;2023-03-01T16:12:15;100765.66;;;12.89;34.67
30021;BME280;16861;52.294;7.760;2023-03-01T16:14:43;100759.88;;;12.63;35.78
30021;BME280;16861;52.294;7.760;2023-03-01T16:17:09;100754.09;;;12.37;36.19
30021;BME280;16861;52.294;7.760;2023-03-01T16:19:39;100757.00;;;12.14;36.33
30021;BME280;16861;52.294;7.760;2023-03-01T16:22:10;100750.97;;;11.91;36.45
30021;BME280;16861;52.294;7.760;2023-03-01T16:24:36;100752.69;;;11.72;37.08
30021;BME280;16861;52.294;7.760;2023-03-01T16:27:03;100754.31;;;11.56;37.49
30021;BME280;16861;52.294;7.760;2023-03-01T16:29:30;100753.22;;;11.41;37.68
30021;BME280;16861;52.294;7.760;2023-03-01T16:31:56;100755.44;;;11.29;37.81
30021;BME280;16861;52.294;7.760;2023-03-01T16:34:26;100753.22;;;11.20;38.04
30021;BME280;16861;52.294;7.760;2023-03-01T16:36:52;100758.13;;;11.08;38.09
30021;BME280;16861;52.294;7.760;2023-03-01T16:39:19;100751.53;;;10.98;38.43
30021;BME280;16861;52.294;7.760;2023-03-01T16:41:45;100751.03;;;10.88;38.49
30021;BME280;16861;52.294;7.760;2023-03-01T16:44:12;100756.66;;;10.80;38.74
30021;BME280;16861;52.294;7.760;2023-03-01T16:46:41;100750.97;;;10.69;38.48
30021;BME280;16861;52.294;7.760;2023-03-01T16:49:08;100749.41;;;10.65;38.98
30021;BME280;16861;52.294;7.760;2023-03-01T16:51:34;100754.03;;;10.58;39.17
30021;BME280;16861;52.294;7.760;2023-03-01T16:54:01;100751.72;;;10.50;39.19
30021;BME280;16861;52.294;7.760;2023-03-01T16:56:30;100753.72;;;10.43;39.41
30021;BME280;16861;52.294;7.760;2023-03-01T16:59:00;100746.19;;;10.34;39.34
30021;BME280;16861;52.294;7.760;2023-03-01T17:01:31;100758.03;;;10.24;39.39
30021;BME280;16861;52.294;7.760;2023-03-01T17:04:06;100752.31;;;10.12;39.53
30021;BME280;16861;52.294;7.760;2023-03-01T17:06:33;100747.47;;;10.01;39.69
30021;BME280;16861;52.294;7.760;2023-03-01T17:08:59;100758.34;;;9.92;39.71
30021;BME280;16861;52.294;7.760;2023-03-01T17:11:27;100749.06;;;9.82;39.93
30021;BME280;16861;52.294;7.760;2023-03-01T17:13:53;100745.97;;;9.72;40.10
30021;BME280;16861;52.294;7.760;2023-03-01T17:16:21;100745.50;;;9.60;40.40
30021;BME280;16861;52.294;7.760;2023-03-01T17:18:48;100748.41;;;9.52;40.51
30021;BME280;16861;52.294;7.760;2023-03-01T17:21:15;100753.19;;;9.41;40.75
30021;BME280;16861;52.294;7.760;2023-03-01T17:23:44;100754.44;;;9.31;40.58
30021;BME280;16861;52.294;7.760;2023-03-01T17:26:10;100754.63;;;9.24;40.87
30021;BME280;16861;52.294;7.760;2023-03-01T17:28:39;100759.31;;;9.16;40.78
30021;BME280;16861;52.294;7.760;2023-03-01T17:31:06;100763.13;;;9.07;40.85
30021;BME280;16861;52.294;7.760;2023-03-01T17:33:33;100762.47;;;9.01;41.44
30021;BME280;16861;52.294;7.760;2023-03-01T17:36:00;100763.59;;;8.93;41.30
30021;BME280;16861;52.294;7.760;2023-03-01T17:38:27;100771.63;;;8.89;41.61
30021;BME280;16861;52.294;7.760;2023-03-01T17:40:53;100777.94;;;8.83;41.48
30021;BME280;16861;52.294;7.760;2023-03-01T17:43:20;100776.38;;;8.77;41.74
30021;BME280;16861;52.294;7.760;2023-03-01T17:45:47;100776.59;;;8.71;41.80
30021;BME280;16861;52.294;7.760;2023-03-01T17:48:16;100781.09;;;8.66;41.76
30021;BME280;16861;52.294;7.760;2023-03-01T17:50:43;100780.44;;;8.59;41.69
30021;BME280;16861;52.294;7.760;2023-03-01T17:53:10;100778.91;;;8.52;41.97
30021;BME280;16861;52.294;7.760;2023-03-01T17:55:42;100782.72;;;8.41;41.55
30021;BME280;16861;52.294;7.760;2023-03-01T17:58:10;100789.09;;;8.34;42.17